Time;durP1;ratioP1;P1;durP2;ratioP2;P2;SDS_P1;SDS_P2;PMS_P1;PMS_P2;Temp;Humidity;BMP_temperature;BMP_pressure;BME280_temperature;BME280_humidity;BME280_pressure;Samples;Min_cycle;Max_cycle;Signal;HPM_P1;HPM_P2
2023/02/01 00:01:57;;;;;;;39.78;5.20;;;5.80;99.90;;;;;;5005121;28;20029;-74
2023/02/01 00:04:22;;;;;;;34.85;4.93;;;5.80;99.90;;;;;;5004553;28;20073;-71
2023/02/01 00:06:48;;;;;;;33.75;5.10;;;5.80;99.90;;;;;;5004291;28;20402;-72
2023/02/01 00:09:14;;;;;;;32.35;4.47;;;5.80;99.90;;;;;;5004581;28;20030;-71
2023/02/01 00:11:40;;;;;;;31.83;4.90;;;5.80;99.90;;;;;;5004700;28;20033;-72
2023/02/01 00:14:05;;;;;;;31.50;5.32;;;5.80;99.90;;;;;;5003506;28;20030;-72
2023/02/01 00:16:32;;;;;;;39.30;5.50;;;5.80;99.90;;;;;;5004772;28;20038;-71
2023/02/01 00:19:11;;;;;;;26.63;4.45;;;5.80;99.90;;;;;;5004547;28;20030;-77
2023/02/01 00:21:37;;;;;;;28.02;4.65;;;5.80;99.90;;;;;;5004708;28;20030;-78
2023/02/01 00:24:03;;;;;;;28.50;4.50;;;5.80;99.90;;;;;;5003064;28;20049;-74
2023/02/01 00:26:33;;;;;;;23.80;4.45;;;5.80;99.90;;;;;;5004638;28;20155;-74
2023/02/01 00:29:00;;;;;;;45.75;5.40;;;5.80;99.90;;;;;;5004175;28;20053;-70
2023/02/01 00:31:25;;;;;;;37.55;5.28;;;5.80;99.90;;;;;;5002970;28;20062;-72
2023/02/01 00:33:51;;;;;;;45.17;5.47;;;5.80;99.90;;;;;;5003917;28;20391;-72
2023/02/01 00:36:17;;;;;;;36.40;5.50;;;5.80;99.90;;;;;;5003583;28;20039;-72
2023/02/01 00:38:42;;;;;;;42.88;5.15;;;6.00;99.90;;;;;;5003908;28;20034;-73
2023/02/01 00:41:12;;;;;;;34.08;5.07;;;5.90;99.90;;;;;;5004326;28;20455;-72
2023/02/01 00:43:38;;;;;;;35.00;5.90;;;5.90;99.90;;;;;;5002774;28;20030;-72
2023/02/01 00:46:04;;;;;;;33.17;5.43;;;5.90;99.90;;;;;;5003120;28;20061;-75
2023/02/01 00:48:29;;;;;;;24.83;4.72;;;5.90;99.90;;;;;;5003079;28;20034;-72
2023/02/01 00:51:03;;;;;;;46.10;5.53;;;5.90;99.90;;;;;;5003972;28;20533;-71
2023/02/01 00:53:29;;;;;;;25.83;4.40;;;6.00;99.90;;;;;;5004448;28;20026;-73
2023/02/01 00:55:54;;;;;;;36.03;5.93;;;6.00;99.90;;;;;;5002561;28;20513;-71
2023/02/01 00:58:20;;;;;;;38.10;5.88;;;5.90;99.90;;;;;;5003962;28;20026;-73
2023/02/01 01:00:46;;;;;;;31.55;5.53;;;5.90;99.90;;;;;;5003544;28;20110;-71
2023/02/01 01:03:18;;;;;;;35.00;5.32;;;6.00;99.90;;;;;;5003670;28;20042;-72
2023/02/01 01:05:45;;;;;;;38.10;5.32;;;6.00;99.90;;;;;;5002292;28;20050;-70
2023/02/01 01:08:11;;;;;;;41.38;5.07;;;5.90;99.90;;;;;;5001305;28;20161;-71
2023/02/01 01:10:37;;;;;;;26.73;4.05;;;6.00;99.90;;;;;;4998838;28;20026;-72
2023/02/01 01:13:02;;;;;;;38.50;5.13;;;6.00;99.90;;;;;;4992438;28;20042;-71
2023/02/01 01:15:28;;;;;;;29.50;5.13;;;6.00;99.90;;;;;;4991669;28;20019;-70
2023/02/01 01:17:53;;;;;;;35.60;5.53;;;6.00;99.90;;;;;;4993526;28;20023;-72
2023/02/01 01:20:21;;;;;;;38.58;4.68;;;6.00;99.90;;;;;;4993887;28;20019;-71
2023/02/01 01:22:47;;;;;;;32.05;4.43;;;6.00;99.90;;;;;;4994338;28;20042;-73
2023/02/01 01:25:13;;;;;;;29.15;5.82;;;6.00;99.90;;;;;;4990088;28;20043;-73
2023/02/01 01:27:38;;;;;;;43.17;5.00;;;6.00;99.90;;;;;;4991980;28;20038;-74
2023/02/01 01:30:04;;;;;;;34.40;4.60;;;6.00;99.90;;;;;;4990149;28;20055;-71
2023/02/01 01:32:30;;;;;;;29.85;4.43;;;6.10;99.90;;;;;;4994585;28;20022;-72
2023/02/01 01:34:55;;;;;;;39.38;4.82;;;6.10;99.90;;;;;;4993354;28;20100;-72
2023/02/01 01:37:21;;;;;;;40.53;5.45;;;6.00;99.90;;;;;;4995611;28;20041;-72
2023/02/01 01:39:47;;;;;;;40.33;4.90;;;6.00;99.90;;;;;;4992183;28;20085;-69
2023/02/01 01:42:13;;;;;;;30.33;4.35;;;6.10;99.90;;;;;;4995638;28;20098;-71
2023/02/01 01:44:59;;;;;;;36.53;5.88;;;6.10;99.90;;;;;;5008562;28;20454;-71
2023/02/01 01:47:29;;;;;;;31.48;4.95;;;6.10;99.90;;;;;;4992315;28;20027;-71
2023/02/01 01:49:55;;;;;;;36.38;5.70;;;6.10;99.90;;;;;;4993719;28;20115;-72
2023/02/01 01:52:21;;;;;;;39.05;6.00;;;6.00;99.90;;;;;;4997271;28;20080;-75
2023/02/01 01:54:51;;;;;;;40.42;5.32;;;6.10;99.90;;;;;;4998795;28;20030;-72
2023/02/01 01:57:22;;;;;;;37.03;4.30;;;6.00;99.90;;;;;;4996336;28;20527;-73
2023/02/01 01:59:55;;;;;;;36.80;4.63;;;6.10;99.90;;;;;;4996015;28;20042;-73
2023/02/01 02:02:21;;;;;;;28.73;4.82;;;6.00;99.90;;;;;;4994137;28;20032;-74
2023/02/01 02:04:47;;;;;;;43.83;5.22;;;6.00;99.90;;;;;;5000982;28;20043;-72
2023/02/01 02:07:20;;;;;;;36.15;5.15;;;6.00;99.90;;;;;;4993557;28;20034;-71
2023/02/01 02:09:46;;;;;;;28.07;4.50;;;6.00;99.90;;;;;;4998285;28;20159;-73
2023/02/01 02:12:11;;;;;;;26.95;4.85;;;6.00;99.90;;;;;;4996515;28;20042;-72
2023/02/01 02:14:37;;;;;;;37.35;4.75;;;6.10;99.90;;;;;;5003298;28;20027;-75
2023/02/01 02:17:22;;;;;;;40.80;5.22;;;6.00;99.90;;;;;;4995487;28;20039;-73
2023/02/01 02:19:56;;;;;;;35.97;5.05;;;6.00;99.90;;;;;;4995736;28;20034;-71
2023/02/01 02:23:01;;;;;;;30.25;5.13;;;6.00;99.90;;;;;;4997723;28;20067;-73
2023/02/01 02:25:27;;;;;;;;;;;6.00;99.90;;;;;;4994489;28;20043;-73
2023/02/01 02:28:16;;;;;;;26.45;4.43;;;6.00;99.90;;;;;;4997201;28;19920;-73
2023/02/01 02:31:09;;;;;;;25.33;3.78;;;6.00;99.90;;;;;;4996409;28;20027;-72
2023/02/01 02:33:57;;;;;;;29.85;5.07;;;6.00;99.90;;;;;;4996232;28;20051;-72
2023/02/01 02:36:58;;;;;;;21.75;4.47;;;6.00;99.90;;;;;;4996085;28;20031;-70
2023/02/01 02:39:50;;;;;;;31.48;4.53;;;6.00;99.90;;;;;;4994883;28;20106;-72
2023/02/01 02:48:29;;;;;;;30.70;4.43;;;5.90;99.90;;;;;;4986566;28;20360;-74
2023/02/01 03:05:22;;;;;;;25.15;3.85;;;6.00;99.90;;;;;;4986498;28;20081;-76
2023/02/01 03:07:57;;;;;;;36.95;4.95;;;6.00;99.90;;;;;;4985004;28;20030;-72
2023/02/01 03:10:43;;;;;;;30.50;4.82;;;6.00;99.90;;;;;;4986262;28;20034;-73
2023/02/01 03:13:35;;;;;;;37.67;5.22;;;5.90;99.90;;;;;;4988317;28;20057;-72
2023/02/01 03:16:16;;;;;;;28.48;4.85;;;5.80;99.90;;;;;;4999639;28;20030;-72
2023/02/01 03:19:08;;;;;;;33.00;4.93;;;5.70;99.90;;;;;;5005877;28;20034;-72
2023/02/01 03:21:40;;;;;;;12.20;2.28;;;5.60;99.90;;;;;;5005833;28;20038;-75
2023/02/01 03:24:14;;;;;;;16.10;1.95;;;5.30;99.90;;;;;;5005498;28;20122;-73
2023/02/01 03:26:51;;;;;;;12.13;1.88;;;5.10;99.90;;;;;;5005222;28;20090;-72
2023/02/01 03:29:29;;;;;;;16.48;2.17;;;4.90;99.90;;;;;;5004821;28;20026;-72
2023/02/01 03:31:55;;;;;;;18.15;2.85;;;4.70;99.90;;;;;;5003639;28;20384;-76
2023/02/01 03:34:21;;;;;;;18.05;2.45;;;4.60;99.90;;;;;;5003414;28;20388;-72
2023/02/01 03:37:06;;;;;;;20.90;3.50;;;4.50;99.90;;;;;;5004703;28;20050;-74
2023/02/01 03:39:44;;;;;;;17.52;2.70;;;4.50;99.90;;;;;;5004790;28;20030;-73
2023/02/01 03:42:23;;;;;;;24.05;3.90;;;4.60;99.90;;;;;;5004121;28;20065;-74
2023/02/01 03:45:22;;;;;;;32.38;3.92;;;4.60;99.90;;;;;;5004993;28;20038;-72
2023/02/01 03:47:52;;;;;;;32.30;4.22;;;4.70;99.90;;;;;;4997485;28;20039;-71
2023/02/01 03:50:20;;;;;;;27.83;4.78;;;4.80;99.90;;;;;;5004754;28;20026;-73
2023/02/01 03:52:52;;;;;;;33.42;5.20;;;4.80;99.90;;;;;;5004041;28;20030;-74
2023/02/01 03:55:20;;;;;;;28.10;4.47;;;4.80;99.90;;;;;;5004955;28;20038;-75
2023/02/01 03:58:04;;;;;;;33.83;4.85;;;4.80;99.90;;;;;;5003776;28;20061;-77
2023/02/01 04:00:30;;;;;;;36.97;5.35;;;4.90;99.90;;;;;;5005105;28;20022;-76
2023/02/01 04:02:56;;;;;;;42.65;5.00;;;4.90;99.90;;;;;;5004648;28;20070;-73
2023/02/01 04:05:22;;;;;;;37.60;4.35;;;4.90;99.90;;;;;;5004899;28;20399;-73
2023/02/01 04:07:48;;;;;;;24.08;4.32;;;4.90;99.90;;;;;;5003279;28;20033;-73
2023/02/01 04:10:13;;;;;;;27.30;2.85;;;4.90;99.90;;;;;;5004738;28;20041;-74
2023/02/01 04:12:39;;;;;;;20.65;3.70;;;4.90;99.90;;;;;;5004248;28;20129;-78
2023/02/01 04:15:05;;;;;;;23.75;4.32;;;4.80;99.90;;;;;;5002776;28;20030;-75
2023/02/01 04:17:31;;;;;;;21.60;3.58;;;4.80;99.90;;;;;;5004344;28;20056;-73
2023/02/01 04:19:57;;;;;;;9.00;2.33;;;4.70;99.90;;;;;;5004715;28;20026;-80
2023/02/01 04:22:22;;;;;;;14.23;2.35;;;4.60;99.90;;;;;;5003043;28;20026;-76
2023/02/01 04:24:48;;;;;;;15.27;2.35;;;4.50;99.90;;;;;;5003991;28;20034;-79
2023/02/01 04:27:14;;;;;;;15.13;2.58;;;4.40;99.90;;;;;;5002752;28;20031;-75
2023/02/01 04:29:39;;;;;;;14.73;3.20;;;4.30;99.90;;;;;;5002176;28;20026;-76
2023/02/01 04:32:05;;;;;;;12.48;2.75;;;4.30;99.90;;;;;;5003249;28;20026;-75
2023/02/01 04:34:31;;;;;;;12.00;2.25;;;4.30;99.90;;;;;;5003072;28;20113;-77
2023/02/01 04:36:57;;;;;;;27.70;3.58;;;4.30;99.90;;;;;;5002858;28;20038;-80
2023/02/01 04:39:22;;;;;;;13.18;2.70;;;4.20;99.90;;;;;;5002738;28;20035;-79
2023/02/01 04:41:48;;;;;;;25.73;3.50;;;4.30;99.90;;;;;;5002896;28;20032;-72
2023/02/01 04:44:18;;;;;;;28.10;3.25;;;4.30;99.90;;;;;;5003719;28;20045;-76
2023/02/01 04:46:44;;;;;;;24.13;4.18;;;4.30;99.90;;;;;;5003382;28;20086;-74
2023/02/01 04:49:10;;;;;;;32.30;4.40;;;4.30;99.90;;;;;;5002626;28;20030;-74
2023/02/01 04:51:36;;;;;;;39.88;5.35;;;4.40;99.90;;;;;;5004058;28;20041;-81
2023/02/01 04:54:01;;;;;;;40.10;6.65;;;4.40;99.90;;;;;;5004595;28;20035;-74
2023/02/01 04:56:27;;;;;;;37.67;6.47;;;4.50;99.90;;;;;;5002221;28;20419;-76
2023/02/01 04:58:53;;;;;;;43.42;6.05;;;4.50;99.90;;;;;;5003999;28;20034;-76
2023/02/01 05:01:19;;;;;;;31.35;5.32;;;4.60;99.90;;;;;;5002854;28;20026;-84
2023/02/01 05:03:44;;;;;;;47.22;5.88;;;4.60;99.90;;;;;;5003931;28;20506;-75
2023/02/01 05:06:10;;;;;;;35.05;5.63;;;4.70;99.90;;;;;;5002617;28;20026;-74
2023/02/01 05:08:35;;;;;;;48.75;6.53;;;4.70;99.90;;;;;;5003508;28;20026;-78
2023/02/01 05:11:04;;;;;;;41.55;5.75;;;4.80;99.90;;;;;;5002438;28;20053;-77
2023/02/01 05:13:49;;;;;;;43.42;6.20;;;4.90;99.90;;;;;;5004112;28;20041;-76
2023/02/01 05:16:15;;;;;;;30.70;5.78;;;4.80;99.90;;;;;;5004187;28;20030;-77
2023/02/01 05:18:41;;;;;;;45.22;6.53;;;4.80;99.90;;;;;;5003494;28;20022;-76
2023/02/01 05:21:07;;;;;;;28.67;5.63;;;4.90;99.90;;;;;;5002043;28;20045;-74
2023/02/01 05:24:09;;;;;;;34.55;5.88;;;4.90;99.90;;;;;;5003987;28;20030;-73
2023/02/01 05:26:18;;;;;;;35.85;5.43;;;4.80;99.90;;;;;;5007583;28;20826;-76
2023/02/01 05:28:44;;;;;;;22.05;4.75;;;4.80;99.90;;;;;;5007769;28;20027;-68
2023/02/01 05:31:10;;;;;;;30.63;5.35;;;4.80;99.90;;;;;;5007414;28;20057;-71
2023/02/01 05:33:36;;;;;;;28.85;4.18;;;4.80;99.90;;;;;;5007426;28;20080;-75
2023/02/01 05:36:02;;;;;;;31.95;4.72;;;4.80;99.90;;;;;;5007365;28;20110;-78
2023/02/01 05:38:29;;;;;;;18.05;4.50;;;4.70;99.90;;;;;;5006118;28;20153;-76
2023/02/01 05:40:55;;;;;;;27.52;4.70;;;4.70;99.90;;;;;;5007873;28;20034;-73
2023/02/01 05:43:20;;;;;;;27.65;4.30;;;4.90;99.90;;;;;;5006152;28;20041;-74
2023/02/01 05:45:46;;;;;;;28.55;4.40;;;4.80;99.90;;;;;;5007224;28;20061;-76
2023/02/01 05:48:11;;;;;;;27.90;5.07;;;4.80;99.90;;;;;;5006241;28;20033;-75
2023/02/01 05:50:37;;;;;;;24.30;4.43;;;4.90;99.90;;;;;;5007206;28;20033;-75
2023/02/01 05:53:03;;;;;;;29.95;4.93;;;4.80;99.90;;;;;;5004398;28;20080;-74
2023/02/01 05:55:28;;;;;;;38.00;5.05;;;5.00;99.90;;;;;;5001836;28;20030;-74
2023/02/01 05:57:54;;;;;;;37.03;4.68;;;4.90;99.90;;;;;;5004156;28;20072;-74
2023/02/01 06:00:20;;;;;;;37.25;5.80;;;5.00;99.90;;;;;;5005640;28;20031;-73
2023/02/01 06:02:45;;;;;;;31.30;5.40;;;4.90;99.90;;;;;;5005634;28;20499;-75
2023/02/01 06:05:11;;;;;;;30.90;4.63;;;4.90;99.90;;;;;;5004629;28;20057;-76
2023/02/01 06:07:36;;;;;;;29.38;5.25;;;4.90;99.90;;;;;;5006039;28;20037;-75
2023/02/01 06:10:02;;;;;;;24.10;4.85;;;4.90;99.90;;;;;;5006050;28;20030;-78
2023/02/01 06:12:28;;;;;;;28.30;4.97;;;4.90;99.90;;;;;;5006191;28;20027;-76
2023/02/01 06:14:53;;;;;;;26.63;5.00;;;4.90;99.90;;;;;;5004755;28;20037;-76
2023/02/01 06:17:19;;;;;;;35.60;5.38;;;4.90;99.90;;;;;;5004531;28;20030;-75
2023/02/01 06:19:45;;;;;;;35.95;5.47;;;4.90;99.90;;;;;;4998519;28;20073;-75
2023/02/01 06:22:10;;;;;;;20.95;3.78;;;4.90;99.90;;;;;;5017254;28;20094;-76
2023/02/01 06:24:36;;;;;;;28.10;5.18;;;4.90;99.90;;;;;;5006496;28;20042;-74
2023/02/01 06:27:01;;;;;;;30.45;4.25;;;4.90;99.90;;;;;;5006640;28;20038;-77
2023/02/01 06:29:27;;;;;;;34.83;4.57;;;4.90;99.90;;;;;;5006091;28;20045;-75
2023/02/01 06:31:52;;;;;;;33.60;4.82;;;4.90;99.90;;;;;;5005776;28;20022;-74
2023/02/01 06:34:19;;;;;;;34.83;5.65;;;4.90;99.90;;;;;;4999458;28;20037;-78
2023/02/01 06:36:45;;;;;;;40.78;5.72;;;4.90;99.90;;;;;;4992961;28;20548;-78
2023/02/01 06:39:12;;;;;;;34.90;5.75;;;4.90;99.90;;;;;;5004214;28;20117;-74
2023/02/01 06:41:38;;;;;;;26.38;6.05;;;5.00;99.90;;;;;;5004133;28;20458;-74
2023/02/01 06:44:03;;;;;;;34.55;5.03;;;5.00;99.90;;;;;;5004096;28;20136;-74
2023/02/01 06:46:29;;;;;;;44.45;5.85;;;5.10;99.90;;;;;;4991227;28;20042;-73
2023/02/01 06:48:55;;;;;;;45.45;6.07;;;5.10;99.90;;;;;;4991201;28;20046;-72
2023/02/01 06:51:24;;;;;;;34.15;5.60;;;5.20;99.90;;;;;;4994472;28;20023;-74
2023/02/01 06:53:50;;;;;;;39.25;5.15;;;5.00;99.90;;;;;;4985764;28;20085;-71
2023/02/01 06:56:16;;;;;;;35.78;5.55;;;5.10;99.90;;;;;;4983893;28;20046;-74
2023/02/01 06:58:42;;;;;;;36.53;5.45;;;5.20;99.90;;;;;;4994650;28;20041;-71
2023/02/01 07:01:09;;;;;;;40.90;5.43;;;5.10;99.90;;;;;;5000717;28;20062;-73
2023/02/01 07:03:35;;;;;;;39.03;5.63;;;5.10;99.90;;;;;;5000839;28;20038;-75
2023/02/01 07:06:01;;;;;;;39.53;5.65;;;5.10;99.90;;;;;;5000496;28;20042;-75
2023/02/01 07:08:28;;;;;;;38.10;5.15;;;5.10;99.90;;;;;;4999685;28;20556;-73
2023/02/01 07:10:53;;;;;;;52.47;5.43;;;5.10;99.90;;;;;;5005565;28;20057;-72
2023/02/01 07:13:19;;;;;;;39.55;5.63;;;5.10;99.90;;;;;;5004807;28;20037;-73
2023/02/01 07:15:47;;;;;;;27.85;5.63;;;5.10;99.90;;;;;;5002125;28;20037;-75
2023/02/01 07:18:15;;;;;;;36.35;5.88;;;5.10;99.90;;;;;;5002892;28;20030;-73
2023/02/01 07:20:41;;;;;;;50.10;6.47;;;5.10;99.90;;;;;;5005344;28;20032;-72
2023/02/01 07:23:10;;;;;;;48.50;6.47;;;5.10;99.90;;;;;;5001138;28;20166;-72
2023/02/01 07:25:35;;;;;;;41.47;6.00;;;5.10;99.90;;;;;;4996273;28;20081;-71
2023/02/01 07:28:01;;;;;;;34.33;5.35;;;5.20;99.90;;;;;;4999746;28;20042;-74
2023/02/01 07:30:26;;;;;;;30.23;5.32;;;5.10;99.90;;;;;;5004186;28;20026;-71
2023/02/01 07:32:52;;;;;;;40.80;5.70;;;5.10;99.90;;;;;;5004794;28;20119;-74
2023/02/01 07:35:17;;;;;;;42.28;5.65;;;5.10;99.90;;;;;;4997049;28;20447;-72
2023/02/01 07:37:43;;;;;;;40.58;5.78;;;5.10;99.90;;;;;;4987320;28;20035;-71
2023/02/01 07:40:09;;;;;;;41.03;6.05;;;5.10;99.90;;;;;;4985471;28;20106;-72
2023/02/01 07:42:35;;;;;;;41.67;5.72;;;5.10;99.90;;;;;;4985656;28;20116;-71
2023/02/01 07:45:02;;;;;;;34.28;5.57;;;5.10;99.90;;;;;;5002085;28;20135;-74
2023/02/01 07:47:27;;;;;;;36.03;5.70;;;5.10;99.90;;;;;;5004282;28;20030;-77
2023/02/01 07:49:53;;;;;;;36.67;6.13;;;5.10;99.90;;;;;;5003769;28;20029;-74
2023/02/01 07:52:18;;;;;;;33.75;5.30;;;5.10;99.90;;;;;;5005109;28;20477;-74
2023/02/01 07:54:44;;;;;;;32.67;4.55;;;5.20;99.90;;;;;;5008204;28;20056;-73
2023/02/01 07:57:11;;;;;;;34.90;5.75;;;5.20;99.90;;;;;;5021955;28;20580;-73
2023/02/01 08:01:19;;;;;;;35.47;5.25;;;5.30;99.90;;;;;;5005695;28;20030;-71
2023/02/01 08:02:23;;;;;;;37.42;5.78;;;5.30;99.90;;;;;;5005254;28;20031;-74
2023/02/01 08:04:48;;;;;;;31.60;5.45;;;5.30;99.90;;;;;;4999072;28;20070;-72
2023/02/01 08:07:14;;;;;;;33.28;5.22;;;5.30;99.90;;;;;;5014617;28;20050;-76
2023/02/01 08:09:40;;;;;;;46.80;6.60;;;5.40;99.90;;;;;;5004364;28;20117;-74
2023/02/01 08:12:05;;;;;;;44.40;5.78;;;5.40;99.90;;;;;;5003274;28;20057;-76
2023/02/01 08:14:31;;;;;;;33.33;4.72;;;5.50;99.90;;;;;;5003376;28;20030;-74
2023/02/01 08:16:56;;;;;;;30.35;5.25;;;5.50;99.90;;;;;;5000508;28;20057;-77
2023/02/01 08:19:22;;;;;;;31.45;4.38;;;5.50;99.90;;;;;;5003278;28;20030;-71
2023/02/01 08:21:48;;;;;;;33.40;4.95;;;5.60;99.90;;;;;;5004398;28;20041;-76
2023/02/01 08:24:14;;;;;;;39.25;6.13;;;5.60;99.90;;;;;;5003286;28;20046;-71
2023/02/01 08:26:40;;;;;;;39.63;5.47;;;5.60;99.90;;;;;;5003279;28;20030;-73
2023/02/01 08:29:08;;;;;;;24.27;4.68;;;5.60;99.90;;;;;;5004370;28;20026;-75
2023/02/01 08:31:34;;;;;;;29.20;5.07;;;5.60;99.90;;;;;;5003630;28;20035;-74
2023/02/01 08:34:03;;;;;;;32.47;5.22;;;5.60;99.90;;;;;;5002981;28;20030;-77
2023/02/01 08:36:30;;;;;;;45.88;5.13;;;5.60;99.90;;;;;;5004763;28;20058;-79
2023/02/01 08:38:56;;;;;;;36.58;5.53;;;5.70;99.90;;;;;;5002491;28;20040;-75
2023/02/01 08:41:25;;;;;;;31.85;4.68;;;5.70;99.90;;;;;;5003506;28;20062;-75
2023/02/01 08:43:51;;;;;;;29.42;4.65;;;6.00;99.90;;;;;;5004012;28;20074;-71
2023/02/01 08:46:17;;;;;;;32.03;4.57;;;6.20;99.90;;;;;;5003994;28;20039;-76
2023/02/01 08:48:43;;;;;;;20.20;4.20;;;6.40;99.90;;;;;;5002937;28;20035;-74
2023/02/01 08:51:11;;;;;;;31.20;4.63;;;6.70;99.90;;;;;;5003335;28;20045;-75
2023/02/01 08:53:37;;;;;;;27.92;4.90;;;6.90;99.90;;;;;;5004303;28;20019;-73
2023/02/01 08:56:04;;;;;;;28.92;3.92;;;6.90;99.90;;;;;;5003711;28;20053;-72
2023/02/01 08:58:29;;;;;;;30.20;4.65;;;6.80;99.90;;;;;;5003435;28;20073;-71
2023/02/01 09:00:55;;;;;;;28.92;5.13;;;6.80;99.90;;;;;;5002649;28;20030;-74
2023/02/01 09:03:23;;;;;;;24.60;4.15;;;6.60;99.90;;;;;;4999589;28;20050;-71
2023/02/01 09:05:49;;;;;;;27.08;4.15;;;6.50;99.90;;;;;;5002698;28;20136;-71
2023/02/01 09:08:14;;;;;;;26.08;4.45;;;6.50;99.90;;;;;;5002323;28;20424;-72
2023/02/01 09:10:41;;;;;;;24.45;4.05;;;6.40;99.90;;;;;;4998237;28;20026;-75
2023/02/01 09:13:08;;;;;;;26.30;4.20;;;6.40;99.90;;;;;;5001528;28;20030;-73
2023/02/01 09:15:34;;;;;;;27.08;4.50;;;6.50;99.90;;;;;;5000926;28;20125;-75
2023/02/01 09:17:59;;;;;;;32.47;5.32;;;6.50;99.90;;;;;;5000966;28;20065;-72
2023/02/01 09:20:25;;;;;;;35.65;4.88;;;6.50;99.90;;;;;;5001470;28;20077;-73
2023/02/01 09:22:51;;;;;;;30.73;4.93;;;6.50;99.90;;;;;;5002128;28;20035;-73
2023/02/01 09:25:17;;;;;;;26.67;4.15;;;6.60;99.90;;;;;;5003334;28;20057;-76
2023/02/01 09:27:43;;;;;;;25.35;4.03;;;6.50;99.90;;;;;;5002522;28;20026;-72
2023/02/01 09:30:09;;;;;;;29.58;4.82;;;6.50;99.90;;;;;;5002077;28;20031;-73
2023/02/01 09:32:36;;;;;;;23.35;3.85;;;6.40;99.90;;;;;;5004274;28;20050;-73
2023/02/01 09:35:02;;;;;;;32.25;4.40;;;6.40;99.90;;;;;;5001818;28;20093;-71
2023/02/01 09:37:28;;;;;;;32.58;5.28;;;6.40;99.90;;;;;;5001797;28;20038;-72
2023/02/01 09:39:54;;;;;;;27.55;4.28;;;6.40;99.90;;;;;;5017271;28;20030;-73
2023/02/01 09:42:19;;;;;;;28.60;4.38;;;6.40;99.90;;;;;;5002842;28;20109;-73
2023/02/01 09:44:51;;;;;;;32.80;5.00;;;6.40;99.90;;;;;;5000150;28;20449;-72
2023/02/01 09:47:21;;;;;;;20.17;3.78;;;6.40;99.90;;;;;;4999872;28;20078;-72
2023/02/01 09:49:54;;;;;;;25.67;4.30;;;6.40;99.90;;;;;;4994213;28;20114;-73
2023/02/01 09:52:27;;;;;;;33.80;4.55;;;6.30;99.90;;;;;;4996538;28;20039;-72
2023/02/01 09:55:00;;;;;;;31.20;4.03;;;6.40;99.90;;;;;;4996044;28;20054;-72
2023/02/01 09:57:35;;;;;;;32.80;5.15;;;6.40;99.90;;;;;;4999954;28;20410;-71
2023/02/01 10:00:06;;;;;;;32.50;4.63;;;6.50;99.90;;;;;;5001167;28;20041;-72
2023/02/01 10:02:37;;;;;;;27.42;4.53;;;6.50;99.90;;;;;;4997495;28;20035;-72
2023/02/01 10:05:04;;;;;;;26.67;3.53;;;6.50;99.90;;;;;;4994570;28;20133;-75
2023/02/01 10:07:54;;;;;;;31.40;4.75;;;6.50;99.90;;;;;;4998622;28;20027;-73
2023/02/01 10:10:31;;;;;;;25.60;4.43;;;6.50;99.90;;;;;;5004656;28;20038;-73
2023/02/01 10:13:09;;;;;;;25.58;4.60;;;6.50;99.90;;;;;;5005516;28;20057;-72
2023/02/01 10:15:37;;;;;;;28.80;4.35;;;6.60;99.90;;;;;;4994605;28;20039;-70
2023/02/01 10:18:23;;;;;;;25.70;4.18;;;6.60;99.90;;;;;;5002838;28;20027;-71
2023/02/01 10:20:49;;;;;;;27.75;4.25;;;6.50;99.90;;;;;;5003124;28;20030;-71
2023/02/01 10:23:51;;;;;;;38.67;4.45;;;6.50;99.90;;;;;;5006173;28;20034;-74
2023/02/01 10:26:21;;;;;;;17.10;3.63;;;6.50;99.90;;;;;;4986958;28;20146;-72
2023/02/01 10:28:53;;;;;;;18.67;4.30;;;6.50;99.90;;;;;;5000337;28;20031;-72
2023/02/01 10:31:22;;;;;;;27.27;4.47;;;6.50;99.90;;;;;;5000495;28;20055;-72
2023/02/01 10:33:52;;;;;;;26.90;4.65;;;6.50;99.90;;;;;;4998037;28;20035;-72
2023/02/01 10:36:19;;;;;;;29.58;3.90;;;6.50;99.90;;;;;;4989642;28;20014;-71
2023/02/01 10:38:44;;;;;;;30.90;4.75;;;6.50;99.90;;;;;;4985521;28;20047;-71
2023/02/01 10:41:16;;;;;;;31.67;4.75;;;6.50;99.90;;;;;;4992927;28;20022;-75
2023/02/01 10:43:43;;;;;;;18.85;3.78;;;6.50;99.90;;;;;;5003036;28;20050;-73
2023/02/01 10:46:09;;;;;;;28.65;4.25;;;6.50;99.90;;;;;;4994624;28;20092;-74
2023/02/01 10:48:35;;;;;;;27.00;4.00;;;6.50;99.90;;;;;;4993568;28;20038;-74
2023/02/01 10:51:11;;;;;;;34.20;5.05;;;6.40;99.90;;;;;;5000114;28;20061;-70
2023/02/01 10:54:01;;;;;;;35.95;4.70;;;6.40;99.90;;;;;;4996533;28;20552;-76
2023/02/01 10:56:28;;;;;;;19.85;4.32;;;6.20;99.90;;;;;;5000847;28;20078;-73
2023/02/01 10:59:03;;;;;;;32.38;5.13;;;6.20;99.90;;;;;;4997114;28;20702;-72
2023/02/01 11:01:34;;;;;;;24.45;4.25;;;6.00;99.90;;;;;;5001476;28;20027;-74
2023/02/01 11:04:03;;;;;;;23.70;4.50;;;6.00;99.90;;;;;;4996005;28;20114;-73
2023/02/01 11:06:39;;;;;;;27.20;3.85;;;5.90;99.90;;;;;;4993575;28;20428;-74
2023/02/01 11:09:07;;;;;;;31.35;4.97;;;5.80;99.90;;;;;;4999143;28;20050;-77
2023/02/01 11:11:53;;;;;;;25.75;5.38;;;5.70;99.90;;;;;;4994397;28;20026;-72
2023/02/01 11:14:23;;;;;;;24.85;4.82;;;5.70;99.90;;;;;;5003983;28;20047;-75
2023/02/01 11:16:55;;;;;;;37.90;4.88;;;5.70;99.90;;;;;;4997800;28;20022;-74
2023/02/01 11:19:20;;;;;;;37.88;4.57;;;5.60;99.90;;;;;;5005325;28;20725;-73
2023/02/01 11:21:52;;;;;;;31.08;5.05;;;5.80;99.90;;;;;;5000789;28;20034;-72
2023/02/01 11:24:30;;;;;;;28.73;4.60;;;5.60;99.90;;;;;;5000977;28;20085;-72
2023/02/01 11:26:58;;;;;;;23.85;4.10;;;5.60;99.90;;;;;;4990336;28;20030;-72
2023/02/01 11:29:29;;;;;;;22.55;4.30;;;5.50;99.90;;;;;;5011189;28;20061;-70
2023/02/01 11:31:57;;;;;;;28.92;4.22;;;5.50;99.90;;;;;;4995907;28;20058;-72
2023/02/01 11:34:26;;;;;;;25.15;3.92;;;5.50;99.90;;;;;;4995079;28;20046;-74
2023/02/01 11:36:55;;;;;;;18.02;4.00;;;5.40;99.90;;;;;;4990573;28;20041;-76
2023/02/01 11:39:28;;;;;;;26.75;4.15;;;5.40;99.90;;;;;;4998060;28;20055;-74
2023/02/01 11:41:59;;;;;;;17.92;4.22;;;5.40;99.90;;;;;;5004228;28;20022;-76
2023/02/01 11:44:44;;;;;;;22.40;4.15;;;5.40;99.90;;;;;;5006462;28;20137;-76
2023/02/01 11:47:24;;;;;;;22.02;3.78;;;5.40;99.90;;;;;;4994305;28;20031;-74
2023/02/01 11:49:54;;;;;;;16.58;3.65;;;5.30;99.90;;;;;;4997927;28;20041;-75
2023/02/01 11:52:40;;;;;;;14.05;2.90;;;5.30;99.90;;;;;;4997394;28;20022;-72
2023/02/01 11:55:44;;;;;;;8.38;2.60;;;5.20;99.90;;;;;;5002212;28;20053;-71
2023/02/01 11:58:09;;;;;;;25.08;2.70;;;5.20;99.90;;;;;;4999382;28;20047;-74
2023/02/01 12:00:44;;;;;;;15.25;2.78;;;5.10;99.90;;;;;;4988849;28;20026;-73
2023/02/01 12:03:38;;;;;;;15.00;2.70;;;5.00;99.90;;;;;;5002426;28;20557;-74
2023/02/01 12:06:27;;;;;;;13.82;3.47;;;5.00;99.90;;;;;;5001371;28;20031;-76
2023/02/01 12:09:14;;;;;;;10.57;2.13;;;4.90;99.90;;;;;;4992069;28;20077;-75
2023/02/01 12:11:51;;;;;;;5.40;0.82;;;4.80;99.90;;;;;;5003834;28;20026;-72
2023/02/01 12:14:23;;;;;;;7.97;0.75;;;4.20;99.90;;;;;;4997253;28;20030;-73
2023/02/01 12:17:23;;;;;;;1.00;0.30;;;3.50;99.90;;;;;;4996677;28;20057;-76
2023/02/01 12:20:15;;;;;;;2.35;0.40;;;3.00;99.90;;;;;;4994583;28;20038;-75
2023/02/01 12:22:46;;;;;;;2.40;0.57;;;2.70;99.90;;;;;;4995998;28;20076;-74
2023/02/01 12:25:39;;;;;;;1.75;0.20;;;2.50;99.90;;;;;;5002422;28;20279;-73
2023/02/01 12:28:46;;;;;;;0.63;0.32;;;2.50;99.90;;;;;;5018947;28;20072;-71
2023/02/01 12:31:23;;;;;;;1.67;0.52;;;2.40;99.90;;;;;;5002409;28;20034;-74
2023/02/01 12:34:18;;;;;;;0.90;0.60;;;2.40;99.90;;;;;;5003568;28;20026;-74
2023/02/01 12:37:29;;;;;;;1.17;0.60;;;2.50;99.90;;;;;;4984377;28;20033;-74
2023/02/01 12:40:05;;;;;;;2.05;0.75;;;2.50;99.90;;;;;;4981433;28;20027;-75
2023/02/01 12:42:56;;;;;;;1.35;0.70;;;2.50;99.90;;;;;;4998987;28;20124;-77
2023/02/01 12:45:36;;;;;;;0.90;0.60;;;2.60;99.90;;;;;;4994093;28;20050;-76
2023/02/01 12:48:33;;;;;;;1.70;0.82;;;2.60;99.90;;;;;;4999313;28;20038;-79
2023/02/01 12:51:21;;;;;;;3.17;0.80;;;2.60;99.90;;;;;;4990841;28;20038;-76
2023/02/01 12:54:11;;;;;;;3.45;0.70;;;2.70;99.90;;;;;;4998935;28;20026;-75
2023/02/01 12:56:45;;;;;;;1.85;0.77;;;2.80;99.90;;;;;;5008296;28;20050;-76
2023/02/01 12:59:44;;;;;;;2.75;1.00;;;2.90;99.90;;;;;;5002917;28;20031;-77
2023/02/01 13:02:27;;;;;;;4.38;0.80;;;3.00;99.90;;;;;;5002410;28;20090;-79
2023/02/01 13:05:01;;;;;;;1.48;0.68;;;3.20;99.90;;;;;;4996671;28;20460;-75
2023/02/01 13:07:34;;;;;;;2.50;0.80;;;3.30;99.90;;;;;;5003833;28;20122;-74
2023/02/01 13:10:25;;;;;;;2.77;0.90;;;3.30;99.90;;;;;;5003432;28;20031;-75
2023/02/01 13:12:57;;;;;;;1.50;0.77;;;3.70;99.90;;;;;;4987935;28;20039;-76
2023/02/01 13:15:31;;;;;;;1.20;0.47;;;4.40;99.90;;;;;;5002010;28;20101;-75
2023/02/01 13:18:00;;;;;;;2.25;0.52;;;5.00;99.90;;;;;;5002548;28;20045;-77
2023/02/01 13:20:39;;;;;;;3.85;0.93;;;5.60;99.90;;;;;;5003380;28;20058;-78
2023/02/01 13:23:27;;;;;;;3.67;0.70;;;6.10;99.90;;;;;;5003696;28;20038;-76
2023/02/01 13:25:54;;;;;;;5.47;0.80;;;6.40;99.90;;;;;;5002921;28;20073;-77
2023/02/01 13:28:27;;;;;;;3.50;1.20;;;6.70;99.90;;;;;;5001264;28;20030;-76